createdAt,value
2018-05-23T00:04:51.203Z,99.90
2018-05-23T00:07:19.109Z,99.90
2018-05-23T00:09:47.739Z,99.90
2018-05-23T00:12:15.661Z,99.90
2018-05-23T00:14:43.559Z,99.90
2018-05-23T00:17:12.214Z,99.90
2018-05-23T00:19:39.721Z,99.90
2018-05-23T00:22:07.269Z,99.90
2018-05-23T00:24:34.797Z,99.90
2018-05-23T00:27:02.353Z,99.90
2018-05-23T00:29:29.865Z,99.90
2018-05-23T00:31:58.149Z,99.90
2018-05-23T00:34:25.688Z,99.90
2018-05-23T00:36:53.202Z,99.90
2018-05-23T00:39:20.719Z,99.90
2018-05-23T00:41:48.223Z,99.90
2018-05-23T00:44:15.753Z,99.90
2018-05-23T00:46:44.019Z,99.90
2018-05-23T00:49:11.534Z,99.90
2018-05-23T00:51:40.863Z,99.90
2018-05-23T00:54:08.406Z,99.90
2018-05-23T00:56:37.042Z,99.90
2018-05-23T00:59:04.946Z,99.90
2018-05-23T01:01:33.581Z,99.90
2018-05-23T01:06:29.952Z,99.90
2018-05-23T01:08:58.278Z,99.90
2018-05-23T01:11:26.568Z,99.90
2018-05-23T01:13:54.065Z,99.90
2018-05-23T01:16:21.970Z,99.90
2018-05-23T01:18:49.467Z,99.90
2018-05-23T01:21:16.984Z,99.90
2018-05-23T01:23:45.281Z,99.90
2018-05-23T01:26:12.781Z,99.90
2018-05-23T01:28:41.068Z,99.90
2018-05-23T01:31:08.584Z,99.90
2018-05-23T01:36:04.962Z,99.90
2018-05-23T01:38:33.624Z,99.90
2018-05-23T01:41:01.134Z,99.90
2018-05-23T01:43:30.165Z,99.90
2018-05-23T01:45:57.673Z,99.90
2018-05-23T01:48:25.968Z,99.90
2018-05-23T01:50:54.244Z,99.90
2018-05-23T01:53:21.746Z,99.90
2018-05-23T01:55:49.270Z,99.90
2018-05-23T01:58:16.771Z,99.90
2018-05-23T02:00:44.670Z,99.90
2018-05-23T02:03:12.940Z,99.90
2018-05-23T02:05:41.265Z,99.90
2018-05-23T02:08:08.771Z,99.90
2018-05-23T02:10:36.288Z,99.90
2018-05-23T02:13:04.577Z,99.90
2018-05-23T02:15:32.083Z,99.90
2018-05-23T02:17:59.600Z,99.90
2018-05-23T02:22:55.971Z,99.90
2018-05-23T02:25:24.242Z,99.90
2018-05-23T02:27:52.924Z,99.90
2018-05-23T02:32:49.298Z,99.90
2018-05-23T02:35:17.592Z,99.90
2018-05-23T02:40:14.362Z,99.90
2018-05-23T02:42:41.854Z,99.90
2018-05-23T02:45:10.134Z,99.90
2018-05-23T02:47:37.631Z,99.90
2018-05-23T02:50:05.552Z,99.90
2018-05-23T02:52:33.045Z,99.90
2018-05-23T02:55:01.329Z,99.90
2018-05-23T02:57:28.854Z,99.90
2018-05-23T02:59:56.353Z,99.90
2018-05-23T03:02:24.263Z,99.90
2018-05-23T03:04:52.537Z,99.90
2018-05-23T03:07:20.330Z,99.90
2018-05-23T03:09:47.846Z,99.90
2018-05-23T03:12:15.751Z,99.90
2018-05-23T03:14:43.283Z,99.90
2018-05-23T03:17:10.786Z,99.90
2018-05-23T03:19:39.080Z,99.90
2018-05-23T03:22:06.667Z,99.90
2018-05-23T03:24:34.508Z,99.90
2018-05-23T03:27:02.006Z,99.90
2018-05-23T03:29:30.306Z,99.90
2018-05-23T03:31:57.803Z,99.90
2018-05-23T03:34:25.316Z,99.90
2018-05-23T03:36:53.611Z,99.90
2018-05-23T03:39:22.255Z,99.90
2018-05-23T03:41:49.784Z,99.90
2018-05-23T03:44:17.281Z,99.90
2018-05-23T03:46:44.801Z,99.90
2018-05-23T03:49:12.713Z,99.90
2018-05-23T03:54:09.088Z,99.90
2018-05-23T03:56:38.123Z,99.90
2018-05-23T03:59:06.056Z,99.90
2018-05-23T04:01:45.488Z,99.90
2018-05-23T04:04:25.599Z,99.90
2018-05-23T04:07:20.571Z,99.90
2018-05-23T04:09:48.208Z,99.90
2018-05-23T04:12:16.035Z,99.90
2018-05-23T04:14:44.307Z,99.90
2018-05-23T04:17:11.836Z,99.90
2018-05-23T04:19:39.363Z,99.90
2018-05-23T04:22:06.881Z,99.90
2018-05-23T04:24:35.161Z,99.90
2018-05-23T04:27:02.661Z,99.90
2018-05-23T04:29:30.177Z,99.90
2018-05-23T04:31:57.691Z,99.90
2018-05-23T04:34:25.600Z,99.90
2018-05-23T04:36:53.110Z,99.90
2018-05-23T04:39:20.688Z,99.90
2018-05-23T04:41:48.159Z,99.90
2018-05-23T04:44:16.500Z,99.90
2018-05-23T04:46:44.405Z,99.90
2018-05-23T04:49:12.688Z,99.90
2018-05-23T04:51:40.980Z,99.90
2018-05-23T04:54:08.510Z,99.90
2018-05-23T04:56:36.790Z,99.90
2018-05-23T04:59:04.320Z,99.90
2018-05-23T05:01:31.835Z,99.90
2018-05-23T05:03:59.344Z,99.90
2018-05-23T05:06:27.284Z,99.90
2018-05-23T05:08:54.796Z,99.90
2018-05-23T05:11:22.290Z,99.90
2018-05-23T05:13:49.818Z,99.90
2018-05-23T05:16:18.102Z,99.90
2018-05-23T05:18:45.617Z,99.90
2018-05-23T05:21:13.132Z,99.90
2018-05-23T05:23:41.058Z,99.90
2018-05-23T05:26:09.321Z,99.90
2018-05-23T05:28:36.847Z,99.90
2018-05-23T05:31:05.121Z,99.90
2018-05-23T05:33:32.655Z,99.90
2018-05-23T05:36:00.157Z,99.90
2018-05-23T05:38:27.662Z,99.90
2018-05-23T05:40:55.190Z,99.90
2018-05-23T05:43:22.690Z,99.90
2018-05-23T05:45:50.213Z,99.90
2018-05-23T05:48:17.729Z,99.90
2018-05-23T05:50:45.258Z,99.90
2018-05-23T05:53:12.780Z,99.90
2018-05-23T05:55:40.695Z,99.90
2018-05-23T05:58:08.994Z,99.90
2018-05-23T06:00:36.497Z,99.90
2018-05-23T06:03:04.782Z,99.90
2018-05-23T06:05:33.064Z,99.90
2018-05-23T06:08:01.360Z,99.90
2018-05-23T06:10:28.890Z,99.90
2018-05-23T06:12:56.794Z,99.90
2018-05-23T06:15:24.303Z,99.90
2018-05-23T06:17:52.194Z,99.90
2018-05-23T06:20:20.488Z,99.90
2018-05-23T06:22:48.003Z,99.90
2018-05-23T06:25:15.535Z,99.90
2018-05-23T06:27:44.192Z,99.90
2018-05-23T06:30:11.715Z,99.90
2018-05-23T06:32:39.223Z,99.90
2018-05-23T06:35:06.771Z,99.90
2018-05-23T06:37:34.320Z,99.90
2018-05-23T06:40:02.639Z,99.90
2018-05-23T06:42:30.173Z,99.90
2018-05-23T06:44:57.722Z,99.90
2018-05-23T06:47:26.027Z,99.90
2018-05-23T06:49:53.624Z,99.90
2018-05-23T06:52:21.107Z,99.90
2018-05-23T06:54:49.382Z,99.90
2018-05-23T06:57:17.681Z,99.90
2018-05-23T06:59:46.195Z,99.90
2018-05-23T07:02:14.459Z,99.90
2018-05-23T07:04:41.976Z,99.90
2018-05-23T07:07:10.246Z,99.90
2018-05-23T07:09:38.561Z,99.90
2018-05-23T07:12:07.206Z,99.90
2018-05-23T07:14:35.493Z,99.90
2018-05-23T07:17:03.764Z,99.90
2018-05-23T07:19:32.074Z,99.90
2018-05-23T07:21:59.598Z,99.90
2018-05-23T07:24:27.875Z,99.90
2018-05-23T07:26:56.168Z,99.90
2018-05-23T07:29:23.712Z,99.90
2018-05-23T07:31:52.008Z,99.90
2018-05-23T07:34:19.516Z,99.90
2018-05-23T07:36:47.039Z,99.90
2018-05-23T07:39:14.557Z,99.90
2018-05-23T07:41:42.861Z,99.90
2018-05-23T07:44:10.372Z,99.90
2018-05-23T07:46:38.643Z,99.90
2018-05-23T07:49:06.154Z,99.90
2018-05-23T07:51:33.671Z,99.90
2018-05-23T07:54:01.190Z,99.90
2018-05-23T07:56:29.092Z,99.90
2018-05-23T07:58:56.621Z,99.90
2018-05-23T08:01:24.114Z,99.90
2018-05-23T08:03:52.407Z,99.90
2018-05-23T08:06:19.911Z,99.90
2018-05-23T08:08:47.812Z,99.90
2018-05-23T08:11:15.339Z,99.90
2018-05-23T08:13:42.852Z,99.90
2018-05-23T08:16:10.386Z,99.90
2018-05-23T08:18:37.894Z,99.90
2018-05-23T08:21:05.421Z,99.90
2018-05-23T08:23:32.930Z,99.90
2018-05-23T08:26:00.856Z,99.90
2018-05-23T08:28:28.361Z,99.90
2018-05-23T08:30:55.857Z,99.90
2018-05-23T08:33:23.381Z,99.90
2018-05-23T08:35:51.288Z,99.90
2018-05-23T08:38:18.799Z,99.90
2018-05-23T08:40:46.311Z,99.00
2018-05-23T08:43:13.825Z,99.90
2018-05-23T08:45:42.099Z,99.90
2018-05-23T08:48:09.626Z,99.40
2018-05-23T08:50:37.893Z,98.00
2018-05-23T08:53:06.162Z,95.10
2018-05-23T08:55:33.677Z,95.80
2018-05-23T08:58:01.183Z,98.10
2018-05-23T09:00:28.704Z,99.00
2018-05-23T09:02:56.610Z,99.90
2018-05-23T09:05:24.543Z,97.70
2018-05-23T09:07:52.051Z,99.90
2018-05-23T09:10:19.572Z,97.60
2018-05-23T09:12:47.094Z,98.30
2018-05-23T09:15:14.605Z,99.90
2018-05-23T09:17:42.120Z,95.80
2018-05-23T09:20:09.629Z,94.90
2018-05-23T09:22:37.146Z,93.30
2018-05-23T09:25:05.056Z,86.80
2018-05-23T09:27:32.585Z,86.90
2018-05-23T09:30:00.095Z,84.80
2018-05-23T09:32:27.632Z,93.40
2018-05-23T09:34:55.158Z,90.10
2018-05-23T09:37:22.673Z,91.80
2018-05-23T09:39:50.957Z,85.90
2018-05-23T09:42:18.462Z,86.30
2018-05-23T09:44:45.988Z,95.70
2018-05-23T09:47:13.549Z,88.30
2018-05-23T09:49:41.063Z,89.10
2018-05-23T09:52:08.579Z,86.70
2018-05-23T09:54:36.107Z,93.90
2018-05-23T09:57:04.388Z,87.50
2018-05-23T09:59:31.929Z,92.40
2018-05-23T10:02:00.211Z,88.60
2018-05-23T10:04:28.131Z,90.40
2018-05-23T10:06:55.654Z,78.90
2018-05-23T10:09:23.172Z,92.50
2018-05-23T10:11:50.700Z,97.10
2018-05-23T10:14:18.598Z,84.60
2018-05-23T10:16:46.119Z,78.90
2018-05-23T10:19:13.625Z,78.40
2018-05-23T10:21:41.530Z,70.20
2018-05-23T10:24:09.444Z,76.40
2018-05-23T10:26:36.994Z,67.20
2018-05-23T10:29:04.521Z,66.40
2018-05-23T10:31:32.031Z,68.70
2018-05-23T10:33:59.955Z,67.10
2018-05-23T10:36:27.465Z,61.20
2018-05-23T10:38:54.966Z,71.60
2018-05-23T10:41:22.493Z,63.00
2018-05-23T10:43:50.749Z,74.10
2018-05-23T10:46:18.326Z,71.10
2018-05-23T10:48:45.787Z,71.10
2018-05-23T10:51:14.076Z,72.70
2018-05-23T10:53:42.334Z,84.10
2018-05-23T10:56:10.280Z,96.40
2018-05-23T10:58:37.783Z,99.50
2018-05-23T11:01:05.301Z,99.90
2018-05-23T11:03:33.587Z,99.80
2018-05-23T11:06:01.905Z,99.80
2018-05-23T11:08:30.169Z,99.90
2018-05-23T11:10:58.423Z,99.90
2018-05-23T11:13:25.950Z,99.70
2018-05-23T11:15:53.849Z,97.50
2018-05-23T11:18:21.759Z,89.40
2018-05-23T11:20:49.265Z,87.20
2018-05-23T11:23:16.762Z,87.50
2018-05-23T11:25:44.283Z,83.70
2018-05-23T11:28:12.552Z,71.80
2018-05-23T11:30:40.085Z,78.60
2018-05-23T11:33:07.595Z,76.20
2018-05-23T11:35:35.135Z,69.50
2018-05-23T11:38:02.633Z,76.80
2018-05-23T11:40:30.136Z,75.80
2018-05-23T11:42:57.654Z,92.90
2018-05-23T11:45:25.167Z,90.00
2018-05-23T11:47:52.713Z,84.50
2018-05-23T11:50:20.209Z,95.40
2018-05-23T11:52:48.501Z,91.00
2018-05-23T11:55:16.798Z,98.90
2018-05-23T11:57:45.055Z,96.10
2018-05-23T12:00:13.353Z,91.00
2018-05-23T12:02:40.865Z,81.70
2018-05-23T12:05:08.381Z,76.10
2018-05-23T12:07:35.883Z,69.70
2018-05-23T12:10:03.405Z,72.50
2018-05-23T12:12:30.923Z,60.60
2018-05-23T12:14:59.212Z,58.70
2018-05-23T12:17:27.119Z,64.90
2018-05-23T12:19:54.621Z,60.70
2018-05-23T12:22:22.899Z,57.60
2018-05-23T12:24:51.163Z,58.30
2018-05-23T12:27:18.693Z,60.70
2018-05-23T12:29:46.196Z,62.00
2018-05-23T12:32:14.491Z,64.20
2018-05-23T12:34:41.998Z,67.50
2018-05-23T12:37:09.515Z,72.20
2018-05-23T12:39:37.028Z,75.60
2018-05-23T12:42:04.534Z,72.10
2018-05-23T12:44:32.053Z,92.10
2018-05-23T12:47:00.344Z,83.20
2018-05-23T12:49:28.655Z,90.20
2018-05-23T12:51:56.146Z,83.60
2018-05-23T12:54:24.068Z,97.50
2018-05-23T12:56:51.592Z,92.70
2018-05-23T12:59:19.104Z,86.80
2018-05-23T13:01:46.615Z,84.80
2018-05-23T13:04:14.880Z,76.00
2018-05-23T13:06:42.394Z,84.30
2018-05-23T13:09:10.672Z,74.40
2018-05-23T13:11:38.593Z,80.90
2018-05-23T13:14:06.876Z,68.10
2018-05-23T13:16:35.159Z,81.30
2018-05-23T13:19:03.422Z,85.10
2018-05-23T13:21:31.364Z,82.50
2018-05-23T13:23:58.871Z,74.70
2018-05-23T13:26:26.374Z,77.90
2018-05-23T13:28:53.898Z,78.90
2018-05-23T13:31:21.795Z,73.00
2018-05-23T13:33:49.310Z,74.70
2018-05-23T13:36:16.830Z,76.80
2018-05-23T13:38:44.365Z,90.10
2018-05-23T13:41:12.266Z,90.80
2018-05-23T13:43:39.812Z,86.30
2018-05-23T13:46:07.332Z,80.10
2018-05-23T13:48:34.848Z,92.60
2018-05-23T13:51:03.132Z,82.70
2018-05-23T13:53:31.034Z,81.50
2018-05-23T13:55:58.574Z,82.00
2018-05-23T13:58:26.478Z,84.90
2018-05-23T14:00:54.006Z,80.70
2018-05-23T14:03:21.538Z,71.80
2018-05-23T14:05:49.049Z,73.40
2018-05-23T14:08:16.566Z,68.80
2018-05-23T14:10:44.836Z,69.80
2018-05-23T14:13:12.357Z,67.70
2018-05-23T14:15:39.870Z,69.90
2018-05-23T14:18:08.154Z,68.30
2018-05-23T14:20:36.425Z,68.50
2018-05-23T14:23:04.354Z,65.90
2018-05-23T14:25:31.860Z,67.10
2018-05-23T14:27:59.371Z,72.10
2018-05-23T14:30:26.890Z,70.20
2018-05-23T14:32:54.404Z,65.30
2018-05-23T14:35:21.914Z,70.10
2018-05-23T14:37:49.415Z,74.20
2018-05-23T14:40:16.947Z,69.60
2018-05-23T14:42:44.446Z,70.40
2018-05-23T14:45:11.985Z,69.60
2018-05-23T14:47:39.895Z,80.00
2018-05-23T14:50:08.213Z,66.40
2018-05-23T14:52:35.696Z,75.60
2018-05-23T14:55:03.201Z,73.80
2018-05-23T14:57:31.488Z,71.80
2018-05-23T14:59:59.767Z,67.70
2018-05-23T15:02:28.495Z,75.20
2018-05-23T15:04:56.701Z,72.50
2018-05-23T15:07:24.620Z,72.00
2018-05-23T15:09:52.887Z,83.80
2018-05-23T15:12:20.401Z,81.80
2018-05-23T15:14:48.318Z,69.40
2018-05-23T15:17:15.832Z,77.70
2018-05-23T15:19:43.798Z,66.50
2018-05-23T15:22:12.797Z,71.00
2018-05-23T15:24:41.104Z,70.90
2018-05-23T15:27:09.394Z,63.60
2018-05-23T15:29:36.949Z,66.30
2018-05-23T15:32:05.259Z,69.30
2018-05-23T15:34:32.796Z,76.50
2018-05-23T15:37:00.323Z,86.70
2018-05-23T15:39:27.853Z,85.80
2018-05-23T15:41:55.791Z,84.50
2018-05-23T15:44:23.320Z,76.30
2018-05-23T15:46:51.297Z,70.20
2018-05-23T15:49:18.833Z,80.00
2018-05-23T15:51:46.765Z,80.60
2018-05-23T15:54:14.675Z,76.90
2018-05-23T15:56:42.226Z,93.70
2018-05-23T15:59:09.761Z,99.60
2018-05-23T16:04:07.028Z,98.90
2018-05-23T16:06:34.981Z,99.20
2018-05-23T16:09:05.322Z,99.90
2018-05-23T16:11:33.623Z,99.90
2018-05-23T16:14:01.921Z,99.90
2018-05-23T16:16:29.861Z,99.90
2018-05-23T16:18:57.804Z,99.90
2018-05-23T16:21:26.595Z,99.90
2018-05-23T16:23:54.921Z,99.90
2018-05-23T16:26:24.961Z,99.90
2018-05-23T16:28:52.495Z,99.90
2018-05-23T16:31:20.525Z,99.90
2018-05-23T16:33:48.439Z,99.90
2018-05-23T16:36:16.011Z,99.90
2018-05-23T16:38:44.750Z,99.90
2018-05-23T16:41:14.248Z,99.90
2018-05-23T16:43:41.807Z,99.90
2018-05-23T16:46:10.157Z,99.90
2018-05-23T16:48:38.527Z,99.90
2018-05-23T16:51:07.594Z,99.90
2018-05-23T16:53:35.541Z,99.90
2018-05-23T16:56:03.873Z,99.90
2018-05-23T16:58:32.063Z,99.90
2018-05-23T17:01:00.027Z,99.90
2018-05-23T17:03:27.640Z,99.90
2018-05-23T17:05:56.327Z,99.90
2018-05-23T17:08:24.002Z,99.90
2018-05-23T17:10:52.379Z,99.90
2018-05-23T17:13:19.947Z,99.90
2018-05-23T17:15:51.437Z,99.90
2018-05-23T17:18:19.997Z,99.90
2018-05-23T17:20:47.568Z,99.90
2018-05-23T17:23:16.286Z,99.90
2018-05-23T17:25:43.828Z,99.90
2018-05-23T17:28:11.833Z,99.90
2018-05-23T17:30:40.133Z,99.90
2018-05-23T17:33:08.094Z,99.90
2018-05-23T17:35:38.644Z,99.90
2018-05-23T17:38:07.443Z,99.90
2018-05-23T17:40:37.099Z,99.90
2018-05-23T17:43:08.079Z,99.90
2018-05-23T17:45:35.659Z,99.90
2018-05-23T17:48:04.418Z,99.90
2018-05-23T17:50:32.066Z,99.90
2018-05-23T17:53:00.570Z,99.90
2018-05-23T17:55:28.112Z,99.90
2018-05-23T17:57:58.123Z,99.90
2018-05-23T18:00:27.038Z,99.90
2018-05-23T18:02:55.953Z,99.90
2018-05-23T18:05:24.054Z,99.90
2018-05-23T18:07:52.882Z,99.90
2018-05-23T18:10:21.584Z,99.90
2018-05-23T18:15:24.490Z,99.90
2018-05-23T18:17:53.683Z,99.90
2018-05-23T18:20:23.329Z,99.90
2018-05-23T18:22:51.258Z,99.90
2018-05-23T18:25:20.953Z,99.90
2018-05-23T18:27:49.698Z,99.90
2018-05-23T18:30:18.837Z,99.90
2018-05-23T18:32:47.238Z,99.90
2018-05-23T18:35:16.190Z,99.90
2018-05-23T18:37:45.797Z,99.90
2018-05-23T18:40:14.818Z,99.90
2018-05-23T18:42:44.650Z,99.90
2018-05-23T18:45:15.041Z,99.90
2018-05-23T18:47:44.210Z,99.90
2018-05-23T18:50:12.837Z,99.90
2018-05-23T18:52:40.702Z,99.90
2018-05-23T18:55:10.433Z,99.90
2018-05-23T18:57:42.002Z,99.90
2018-05-23T19:00:10.318Z,99.90
2018-05-23T19:02:40.713Z,99.90
2018-05-23T19:05:09.985Z,99.90
2018-05-23T19:07:39.130Z,99.90
2018-05-23T19:10:06.695Z,99.90
2018-05-23T19:15:10.206Z,99.90
2018-05-23T19:20:10.993Z,99.90
2018-05-23T19:22:40.961Z,99.90
2018-05-23T19:25:13.988Z,99.90
2018-05-23T19:27:43.847Z,99.90
2018-05-23T19:30:12.990Z,99.90
2018-05-23T19:32:42.759Z,99.90
2018-05-23T19:35:10.933Z,99.90
2018-05-23T19:37:39.500Z,99.90
2018-05-23T19:40:07.931Z,99.90
2018-05-23T19:42:37.260Z,99.90
2018-05-23T19:45:08.541Z,99.90
2018-05-23T19:47:39.279Z,99.90
2018-05-23T19:50:09.289Z,99.90
2018-05-23T19:52:38.285Z,99.90
2018-05-23T19:55:06.648Z,99.90
2018-05-23T19:57:35.109Z,99.90
2018-05-23T20:00:04.249Z,99.90
2018-05-23T20:02:34.302Z,99.90
2018-05-23T20:05:02.676Z,99.90
2018-05-23T20:07:31.081Z,99.90
2018-05-23T20:09:59.719Z,99.90
2018-05-23T20:12:28.202Z,99.90
2018-05-23T20:14:56.830Z,99.90
2018-05-23T20:17:25.333Z,99.90
2018-05-23T20:19:54.308Z,99.90
2018-05-23T20:22:23.219Z,99.90
2018-05-23T20:24:51.141Z,99.90
2018-05-23T20:27:20.939Z,99.90
2018-05-23T20:32:18.731Z,99.90
2018-05-23T20:34:46.924Z,99.90
2018-05-23T20:37:15.318Z,99.90
2018-05-23T20:39:46.854Z,99.90
2018-05-23T20:42:17.682Z,99.90
2018-05-23T20:44:47.350Z,99.90
2018-05-23T20:47:15.009Z,99.90
2018-05-23T20:49:43.572Z,99.90
2018-05-23T20:52:11.134Z,99.90
2018-05-23T20:54:38.780Z,99.90
2018-05-23T20:57:06.964Z,99.90
2018-05-23T20:59:34.596Z,99.90
2018-05-23T21:02:02.999Z,99.90
2018-05-23T21:04:31.159Z,99.90
2018-05-23T21:07:00.212Z,99.90
2018-05-23T21:09:29.293Z,99.90
2018-05-23T21:11:57.127Z,99.90
2018-05-23T21:14:24.690Z,99.90
2018-05-23T21:19:21.182Z,99.90
2018-05-23T21:21:49.506Z,99.90
2018-05-23T21:24:17.827Z,99.90
2018-05-23T21:26:45.760Z,99.90
2018-05-23T21:29:13.696Z,99.90
2018-05-23T21:31:42.746Z,99.90
2018-05-23T21:34:11.969Z,99.90
2018-05-23T21:39:09.208Z,99.90
2018-05-23T21:41:39.219Z,99.90
2018-05-23T21:44:06.809Z,99.90
2018-05-23T21:46:35.502Z,99.90
2018-05-23T21:49:03.432Z,99.90
2018-05-23T21:51:31.382Z,99.90
2018-05-23T21:54:00.044Z,99.90
2018-05-23T21:56:27.584Z,99.90
2018-05-23T21:58:55.091Z,99.90
2018-05-23T22:01:24.150Z,99.90
2018-05-23T22:03:52.362Z,99.90
2018-05-23T22:06:20.660Z,99.90
2018-05-23T22:08:48.588Z,99.90
2018-05-23T22:11:17.270Z,99.90
2018-05-23T22:13:44.798Z,99.90
2018-05-23T22:16:13.657Z,99.90
2018-05-23T22:18:41.208Z,99.90
2018-05-23T22:21:09.502Z,99.90
2018-05-23T22:23:37.074Z,99.90
2018-05-23T22:26:05.354Z,99.90
2018-05-23T22:28:32.867Z,99.90
2018-05-23T22:31:01.257Z,99.90
2018-05-23T22:33:29.630Z,99.90
2018-05-23T22:35:58.696Z,99.90
2018-05-23T22:38:26.606Z,99.90
2018-05-23T22:40:54.884Z,99.90
2018-05-23T22:43:23.156Z,99.90
2018-05-23T22:45:51.447Z,99.90
2018-05-23T22:48:19.720Z,99.90
2018-05-23T22:50:47.630Z,99.90
2018-05-23T22:53:15.146Z,99.90
2018-05-23T22:55:43.047Z,99.90
2018-05-23T22:58:10.566Z,99.90
2018-05-23T23:00:38.469Z,99.90
2018-05-23T23:03:05.989Z,99.90
2018-05-23T23:05:34.266Z,99.90
2018-05-23T23:08:02.195Z,99.90
2018-05-23T23:10:30.122Z,99.90
2018-05-23T23:12:57.642Z,99.90
2018-05-23T23:15:25.145Z,99.90
2018-05-23T23:17:52.669Z,99.90
2018-05-23T23:20:21.315Z,99.90
2018-05-23T23:22:48.843Z,99.90
2018-05-23T23:25:16.741Z,99.90
2018-05-23T23:27:44.310Z,99.90
2018-05-23T23:30:12.579Z,99.90
2018-05-23T23:35:08.941Z,99.90
2018-05-23T23:37:36.459Z,99.90
2018-05-23T23:40:04.681Z,99.90
2018-05-23T23:42:33.717Z,99.90
2018-05-23T23:45:01.271Z,99.90
2018-05-23T23:47:29.538Z,99.90
2018-05-23T23:49:57.869Z,99.90
2018-05-23T23:52:25.777Z,99.90
2018-05-23T23:54:53.679Z,99.90
2018-05-23T23:57:21.220Z,99.90
2018-05-23T23:59:49.527Z,99.90
